sensor_id;sensor_type;location;lat;lon;timestamp;pressure;altitude;pressure_sealevel;temperature;humidity
5126;BME280;63008;53.112;8.896;2023-04-22T00:00:47;101096.09;;;12.53;58.99
5126;BME280;63008;53.112;8.896;2023-04-22T00:02:48;101084.97;;;12.50;58.76
5126;BME280;63008;53.112;8.896;2023-04-22T00:04:49;101079.44;;;12.50;58.81
5126;BME280;63008;53.112;8.896;2023-04-22T00:06:50;101083.09;;;12.42;59.57
5126;BME280;63008;53.112;8.896;2023-04-22T00:08:51;101078.53;;;12.46;58.99
5126;BME280;63008;53.112;8.896;2023-04-22T00:10:52;101075.09;;;12.49;59.29
5126;BME280;63008;53.112;8.896;2023-04-22T00:12:53;101067.06;;;12.44;58.99
5126;BME280;63008;53.112;8.896;2023-04-22T00:14:54;101058.78;;;12.44;59.10
5126;BME280;63008;53.112;8.896;2023-04-22T00:16:56;101057.03;;;12.39;59.16
5126;BME280;63008;53.112;8.896;2023-04-22T00:18:57;101054.66;;;12.38;58.85
5126;BME280;63008;53.112;8.896;2023-04-22T00:20:58;101047.72;;;12.32;59.25
5126;BME280;63008;53.112;8.896;2023-04-22T00:22:59;101051.75;;;12.34;58.97
5126;BME280;63008;53.112;8.896;2023-04-22T00:25:00;101049.38;;;12.33;59.12
5126;BME280;63008;53.112;8.896;2023-04-22T00:27:00;101058.28;;;12.30;59.74
5126;BME280;63008;53.112;8.896;2023-04-22T00:29:02;101048.31;;;12.37;58.55
5126;BME280;63008;53.112;8.896;2023-04-22T00:31:03;101048.09;;;12.30;59.00
5126;BME280;63008;53.112;8.896;2023-04-22T00:33:04;101042.19;;;12.20;59.53
5126;BME280;63008;53.112;8.896;2023-04-22T00:35:05;101039.63;;;12.15;59.73
5126;BME280;63008;53.112;8.896;2023-04-22T00:37:07;101033.00;;;12.16;59.58
5126;BME280;63008;53.112;8.896;2023-04-22T00:39:07;101031.88;;;12.17;59.71
5126;BME280;63008;53.112;8.896;2023-04-22T00:41:09;101025.88;;;12.15;60.04
5126;BME280;63008;53.112;8.896;2023-04-22T00:43:10;101031.13;;;12.08;60.06
5126;BME280;63008;53.112;8.896;2023-04-22T00:45:14;101020.94;;;12.08;60.18
5126;BME280;63008;53.112;8.896;2023-04-22T00:47:18;101026.16;;;12.01;60.29
5126;BME280;63008;53.112;8.896;2023-04-22T00:49:19;101018.03;;;12.05;60.02
5126;BME280;63008;53.112;8.896;2023-04-22T00:51:19;101031.66;;;12.01;60.11
5126;BME280;63008;53.112;8.896;2023-04-22T00:53:20;101022.47;;;11.97;60.28
5126;BME280;63008;53.112;8.896;2023-04-22T00:55:21;101014.53;;;11.96;60.62
5126;BME280;63008;53.112;8.896;2023-04-22T00:57:22;101006.44;;;11.99;60.67
5126;BME280;63008;53.112;8.896;2023-04-22T00:59:24;101010.34;;;11.98;60.20
5126;BME280;63008;53.112;8.896;2023-04-22T01:01:26;101007.25;;;12.00;60.42
5126;BME280;63008;53.112;8.896;2023-04-22T01:03:28;101003.69;;;11.99;60.68
5126;BME280;63008;53.112;8.896;2023-04-22T01:05:30;101009.31;;;12.03;60.54
5126;BME280;63008;53.112;8.896;2023-04-22T01:07:31;101013.91;;;11.99;60.34
5126;BME280;63008;53.112;8.896;2023-04-22T01:09:32;101009.19;;;11.99;60.59
5126;BME280;63008;53.112;8.896;2023-04-22T01:11:34;101006.28;;;11.96;60.55
5126;BME280;63008;53.112;8.896;2023-04-22T01:13:35;101002.06;;;11.98;60.85
5126;BME280;63008;53.112;8.896;2023-04-22T01:15:37;101003.00;;;12.02;60.76
5126;BME280;63008;53.112;8.896;2023-04-22T01:17:38;101003.53;;;11.96;60.97
5126;BME280;63008;53.112;8.896;2023-04-22T01:19:40;101008.59;;;11.94;60.74
5126;BME280;63008;53.112;8.896;2023-04-22T01:21:42;101005.78;;;11.82;60.83
5126;BME280;63008;53.112;8.896;2023-04-22T01:23:44;101007.72;;;11.81;61.32
5126;BME280;63008;53.112;8.896;2023-04-22T01:25:47;101008.31;;;11.87;61.25
5126;BME280;63008;53.112;8.896;2023-04-22T01:27:48;101012.81;;;11.91;60.99
5126;BME280;63008;53.112;8.896;2023-04-22T01:29:49;101009.13;;;11.87;60.91
5126;BME280;63008;53.112;8.896;2023-04-22T01:31:51;101006.25;;;11.84;61.12
5126;BME280;63008;53.112;8.896;2023-04-22T01:33:53;101002.56;;;11.80;61.09
5126;BME280;63008;53.112;8.896;2023-04-22T01:35:54;101000.16;;;11.78;61.43
5126;BME280;63008;53.112;8.896;2023-04-22T01:37:55;100996.72;;;11.81;61.70
5126;BME280;63008;53.112;8.896;2023-04-22T01:39:57;100991.38;;;11.85;61.34
5126;BME280;63008;53.112;8.896;2023-04-22T01:41:58;100986.25;;;11.75;61.28
5126;BME280;63008;53.112;8.896;2023-04-22T01:44:02;100994.03;;;11.73;61.09
5126;BME280;63008;53.112;8.896;2023-04-22T01:46:03;100988.31;;;11.78;61.71
5126;BME280;63008;53.112;8.896;2023-04-22T01:48:05;100982.72;;;11.74;61.51
5126;BME280;63008;53.112;8.896;2023-04-22T01:58:32;100995.66;;;11.74;61.92
5126;BME280;63008;53.112;8.896;2023-04-22T02:00:33;100993.72;;;11.74;60.95
5126;BME280;63008;53.112;8.896;2023-04-22T02:02:34;100990.69;;;11.67;61.64
5126;BME280;63008;53.112;8.896;2023-04-22T02:04:35;100986.00;;;11.68;61.97
5126;BME280;63008;53.112;8.896;2023-04-22T02:06:36;100983.72;;;11.70;61.83
5126;BME280;63008;53.112;8.896;2023-04-22T02:08:37;100990.97;;;11.74;62.66
5126;BME280;63008;53.112;8.896;2023-04-22T02:10:38;100992.56;;;11.75;61.60
5126;BME280;63008;53.112;8.896;2023-04-22T02:12:39;100987.06;;;11.75;62.02
5126;BME280;63008;53.112;8.896;2023-04-22T02:14:40;100991.91;;;11.78;61.44
5126;BME280;63008;53.112;8.896;2023-04-22T02:16:41;100989.81;;;11.75;61.56
5126;BME280;63008;53.112;8.896;2023-04-22T02:18:42;100991.91;;;11.78;61.31
5126;BME280;63008;53.112;8.896;2023-04-22T02:20:43;100989.47;;;11.77;61.82
5126;BME280;63008;53.112;8.896;2023-04-22T02:22:44;100992.09;;;11.73;61.85
5126;BME280;63008;53.112;8.896;2023-04-22T02:24:45;100986.41;;;11.78;61.46
5126;BME280;63008;53.112;8.896;2023-04-22T02:26:46;100985.47;;;11.74;61.91
5126;BME280;63008;53.112;8.896;2023-04-22T02:28:48;100989.22;;;11.70;61.09
5126;BME280;63008;53.112;8.896;2023-04-22T02:30:49;100986.16;;;11.71;61.52
5126;BME280;63008;53.112;8.896;2023-04-22T02:32:50;100988.59;;;11.64;61.87
5126;BME280;63008;53.112;8.896;2023-04-22T02:34:51;100989.44;;;11.65;61.88
5126;BME280;63008;53.112;8.896;2023-04-22T02:36:52;100991.81;;;11.66;61.88
5126;BME280;63008;53.112;8.896;2023-04-22T02:38:53;100987.00;;;11.63;62.13
5126;BME280;63008;53.112;8.896;2023-04-22T02:40:54;100980.97;;;11.70;61.80
5126;BME280;63008;53.112;8.896;2023-04-22T02:42:55;100973.66;;;11.74;61.61
5126;BME280;63008;53.112;8.896;2023-04-22T02:44:56;100978.69;;;11.72;61.80
5126;BME280;63008;53.112;8.896;2023-04-22T02:46:57;100977.41;;;11.69;61.81
5126;BME280;63008;53.112;8.896;2023-04-22T02:48:58;100980.03;;;11.66;62.14
5126;BME280;63008;53.112;8.896;2023-04-22T02:50:59;100978.06;;;11.66;62.58
5126;BME280;63008;53.112;8.896;2023-04-22T02:53:00;100968.06;;;11.62;61.52
5126;BME280;63008;53.112;8.896;2023-04-22T02:55:01;100970.53;;;11.55;62.72
5126;BME280;63008;53.112;8.896;2023-04-22T02:57:02;100968.75;;;11.59;62.35
5126;BME280;63008;53.112;8.896;2023-04-22T02:59:03;100962.00;;;11.56;62.02
5126;BME280;63008;53.112;8.896;2023-04-22T03:01:04;100958.91;;;11.58;62.80
5126;BME280;63008;53.112;8.896;2023-04-22T03:03:05;100955.50;;;11.52;62.51
5126;BME280;63008;53.112;8.896;2023-04-22T03:05:06;100958.75;;;11.54;62.49
5126;BME280;63008;53.112;8.896;2023-04-22T03:07:07;100951.78;;;11.57;62.19
5126;BME280;63008;53.112;8.896;2023-04-22T03:09:08;100955.03;;;11.50;62.54
5126;BME280;63008;53.112;8.896;2023-04-22T03:11:09;100959.28;;;11.48;62.62
5126;BME280;63008;53.112;8.896;2023-04-22T03:13:12;100948.66;;;11.38;62.64
5126;BME280;63008;53.112;8.896;2023-04-22T03:15:13;100954.53;;;11.36;63.01
5126;BME280;63008;53.112;8.896;2023-04-22T03:17:14;100946.41;;;11.40;62.61
5126;BME280;63008;53.112;8.896;2023-04-22T03:19:15;100949.13;;;11.40;62.96
5126;BME280;63008;53.112;8.896;2023-04-22T03:21:16;100943.66;;;11.40;62.96
5126;BME280;63008;53.112;8.896;2023-04-22T03:23:17;100941.88;;;11.35;63.44
5126;BME280;63008;53.112;8.896;2023-04-22T03:25:18;100946.44;;;11.31;62.91
5126;BME280;63008;53.112;8.896;2023-04-22T03:27:19;100947.94;;;11.29;63.41
5126;BME280;63008;53.112;8.896;2023-04-22T03:29:20;100946.97;;;11.25;63.84
5126;BME280;63008;53.112;8.896;2023-04-22T03:31:21;100940.69;;;11.24;63.51
5126;BME280;63008;53.112;8.896;2023-04-22T03:33:22;100942.34;;;11.17;64.05
5126;BME280;63008;53.112;8.896;2023-04-22T03:35:23;100933.66;;;11.15;64.10
5126;BME280;63008;53.112;8.896;2023-04-22T03:37:24;100940.44;;;11.09;64.22
5126;BME280;63008;53.112;8.896;2023-04-22T03:39:25;100938.84;;;11.08;65.22
5126;BME280;63008;53.112;8.896;2023-04-22T03:41:26;100945.31;;;11.12;65.14
5126;BME280;63008;53.112;8.896;2023-04-22T03:43:27;100934.50;;;11.07;65.13
5126;BME280;63008;53.112;8.896;2023-04-22T03:45:28;100933.69;;;11.06;65.10
5126;BME280;63008;53.112;8.896;2023-04-22T03:47:29;100936.75;;;11.05;64.76
5126;BME280;63008;53.112;8.896;2023-04-22T03:49:30;100930.66;;;10.99;65.11
5126;BME280;63008;53.112;8.896;2023-04-22T03:51:31;100934.06;;;10.96;65.04
5126;BME280;63008;53.112;8.896;2023-04-22T03:53:32;100943.13;;;10.97;65.48
5126;BME280;63008;53.112;8.896;2023-04-22T03:55:33;100940.69;;;10.95;65.68
5126;BME280;63008;53.112;8.896;2023-04-22T03:57:34;100942.66;;;10.95;66.01
5126;BME280;63008;53.112;8.896;2023-04-22T03:59:35;100939.41;;;11.01;66.49
5126;BME280;63008;53.112;8.896;2023-04-22T04:01:36;100933.34;;;11.08;66.84
5126;BME280;63008;53.112;8.896;2023-04-22T04:03:37;100940.44;;;11.09;66.29
5126;BME280;63008;53.112;8.896;2023-04-22T04:05:38;100938.66;;;11.13;66.15
5126;BME280;63008;53.112;8.896;2023-04-22T04:07:39;100928.41;;;11.22;65.81
5126;BME280;63008;53.112;8.896;2023-04-22T04:09:40;100930.84;;;11.23;65.93
5126;BME280;63008;53.112;8.896;2023-04-22T04:11:41;100926.28;;;11.27;66.41
5126;BME280;63008;53.112;8.896;2023-04-22T04:13:42;100921.47;;;11.24;65.22
5126;BME280;63008;53.112;8.896;2023-04-22T04:15:43;100926.28;;;11.27;66.16
5126;BME280;63008;53.112;8.896;2023-04-22T04:17:44;100921.41;;;11.33;65.20
5126;BME280;63008;53.112;8.896;2023-04-22T04:19:45;100924.41;;;11.40;65.35
5126;BME280;63008;53.112;8.896;2023-04-22T04:21:46;100921.59;;;11.48;65.30
5126;BME280;63008;53.112;8.896;2023-04-22T04:23:47;100917.38;;;11.51;66.37
5126;BME280;63008;53.112;8.896;2023-04-22T04:25:48;100925.44;;;11.56;65.27
5126;BME280;63008;53.112;8.896;2023-04-22T04:27:49;100930.78;;;11.52;65.22
5126;BME280;63008;53.112;8.896;2023-04-22T04:29:54;100926.56;;;11.55;65.01
5126;BME280;63008;53.112;8.896;2023-04-22T04:31:56;100928.19;;;11.56;65.08
5126;BME280;63008;53.112;8.896;2023-04-22T04:33:57;100918.31;;;11.55;64.95
5126;BME280;63008;53.112;8.896;2023-04-22T04:35:59;100913.81;;;11.50;64.54
5126;BME280;63008;53.112;8.896;2023-04-22T04:38:03;100914.84;;;11.46;64.92
5126;BME280;63008;53.112;8.896;2023-04-22T04:40:06;100911.28;;;11.45;64.17
5126;BME280;63008;53.112;8.896;2023-04-22T04:42:08;100905.31;;;11.43;64.89
5126;BME280;63008;53.112;8.896;2023-04-22T04:44:09;100909.88;;;11.39;64.51
5126;BME280;63008;53.112;8.896;2023-04-22T04:46:10;100905.63;;;11.42;65.14
5126;BME280;63008;53.112;8.896;2023-04-22T04:48:12;100907.13;;;11.39;64.57
5126;BME280;63008;53.112;8.896;2023-04-22T04:50:14;100905.16;;;11.40;64.71
5126;BME280;63008;53.112;8.896;2023-04-22T04:52:15;100908.53;;;11.45;64.55
5126;BME280;63008;53.112;8.896;2023-04-22T04:54:16;100907.75;;;11.45;64.38
5126;BME280;63008;53.112;8.896;2023-04-22T04:56:17;100906.59;;;11.46;64.63
5126;BME280;63008;53.112;8.896;2023-04-22T04:58:18;100905.94;;;11.49;64.53
5126;BME280;63008;53.112;8.896;2023-04-22T05:00:19;100907.81;;;11.57;64.01
5126;BME280;63008;53.112;8.896;2023-04-22T05:02:20;100899.72;;;11.60;64.72
5126;BME280;63008;53.112;8.896;2023-04-22T05:04:21;100897.88;;;11.64;64.02
5126;BME280;63008;53.112;8.896;2023-04-22T05:06:22;100899.63;;;11.69;64.29
5126;BME280;63008;53.112;8.896;2023-04-22T05:08:23;100902.63;;;11.76;63.60
5126;BME280;63008;53.112;8.896;2023-04-22T05:10:24;100895.56;;;11.87;62.54
5126;BME280;63008;53.112;8.896;2023-04-22T05:12:25;100894.75;;;11.86;62.64
5126;BME280;63008;53.112;8.896;2023-04-22T05:14:26;100890.78;;;11.96;62.75
5126;BME280;63008;53.112;8.896;2023-04-22T05:16:27;100885.53;;;12.03;63.06
5126;BME280;63008;53.112;8.896;2023-04-22T05:18:28;100889.69;;;12.09;62.87
5126;BME280;63008;53.112;8.896;2023-04-22T05:20:29;100884.53;;;12.19;62.13
5126;BME280;63008;53.112;8.896;2023-04-22T05:22:30;100889.47;;;12.26;61.97
5126;BME280;63008;53.112;8.896;2023-04-22T05:24:31;100888.94;;;12.32;61.34
5126;BME280;63008;53.112;8.896;2023-04-22T05:26:32;100892.03;;;12.43;61.54
5126;BME280;63008;53.112;8.896;2023-04-22T05:28:33;100892.94;;;12.47;60.44
5126;BME280;63008;53.112;8.896;2023-04-22T05:30:34;100892.50;;;12.57;60.60
5126;BME280;63008;53.112;8.896;2023-04-22T05:32:35;100889.41;;;12.58;61.14
5126;BME280;63008;53.112;8.896;2023-04-22T05:34:36;100900.78;;;12.69;60.54
5126;BME280;63008;53.112;8.896;2023-04-22T05:36:37;100886.91;;;12.77;60.20
5126;BME280;63008;53.112;8.896;2023-04-22T05:38:38;100889.41;;;12.82;60.56
5126;BME280;63008;53.112;8.896;2023-04-22T05:40:39;100894.13;;;12.93;59.95
5126;BME280;63008;53.112;8.896;2023-04-22T05:42:40;100899.19;;;13.03;59.24
5126;BME280;63008;53.112;8.896;2023-04-22T05:44:41;100895.25;;;13.16;59.04
5126;BME280;63008;53.112;8.896;2023-04-22T05:46:42;100891.13;;;13.22;58.54
5126;BME280;63008;53.112;8.896;2023-04-22T05:48:43;100887.31;;;13.27;58.65
5126;BME280;63008;53.112;8.896;2023-04-22T05:50:44;100895.88;;;13.37;58.18
5126;BME280;63008;53.112;8.896;2023-04-22T05:52:45;100893.00;;;13.46;58.53
5126;BME280;63008;53.112;8.896;2023-04-22T05:54:46;100898.63;;;13.49;59.19
5126;BME280;63008;53.112;8.896;2023-04-22T05:56:47;100899.63;;;13.57;57.95
5126;BME280;63008;53.112;8.896;2023-04-22T05:58:48;100898.34;;;13.66;57.49
5126;BME280;63008;53.112;8.896;2023-04-22T06:00:49;100900.81;;;13.71;57.17
5126;BME280;63008;53.112;8.896;2023-04-22T06:02:50;100907.00;;;13.80;57.16
5126;BME280;63008;53.112;8.896;2023-04-22T06:04:51;100904.22;;;13.92;57.68
5126;BME280;63008;53.112;8.896;2023-04-22T06:06:52;100907.94;;;14.00;56.99
5126;BME280;63008;53.112;8.896;2023-04-22T06:08:53;100907.53;;;14.13;57.03
5126;BME280;63008;53.112;8.896;2023-04-22T06:10:54;100892.53;;;14.26;57.32
5126;BME280;63008;53.112;8.896;2023-04-22T06:12:55;100882.75;;;14.29;56.80
5126;BME280;63008;53.112;8.896;2023-04-22T06:14:56;100891.28;;;14.39;56.65
5126;BME280;63008;53.112;8.896;2023-04-22T06:16:57;100888.19;;;14.56;55.75
5126;BME280;63008;53.112;8.896;2023-04-22T06:18:58;100895.84;;;14.63;55.25
5126;BME280;63008;53.112;8.896;2023-04-22T06:20:59;100894.25;;;14.62;56.04
5126;BME280;63008;53.112;8.896;2023-04-22T06:23:01;100886.06;;;14.65;55.50
5126;BME280;63008;53.112;8.896;2023-04-22T06:25:02;100899.16;;;14.68;55.78
5126;BME280;63008;53.112;8.896;2023-04-22T06:27:03;100907.69;;;14.78;55.01
5126;BME280;63008;53.112;8.896;2023-04-22T06:29:04;100897.72;;;14.74;55.06
5126;BME280;63008;53.112;8.896;2023-04-22T06:31:05;100899.25;;;14.71;55.64
5126;BME280;63008;53.112;8.896;2023-04-22T06:33:06;100897.66;;;14.70;55.93
5126;BME280;63008;53.112;8.896;2023-04-22T06:35:07;100892.38;;;14.65;55.94
5126;BME280;63008;53.112;8.896;2023-04-22T06:37:09;100907.06;;;14.69;56.20
5126;BME280;63008;53.112;8.896;2023-04-22T06:39:10;100892.19;;;14.74;55.30
5126;BME280;63008;53.112;8.896;2023-04-22T06:41:11;100898.16;;;14.76;55.56
5126;BME280;63008;53.112;8.896;2023-04-22T06:43:12;100889.13;;;14.79;55.89
5126;BME280;63008;53.112;8.896;2023-04-22T06:45:13;100886.03;;;14.80;55.37
5126;BME280;63008;53.112;8.896;2023-04-22T06:47:14;100892.63;;;14.76;55.84
5126;BME280;63008;53.112;8.896;2023-04-22T06:49:15;100895.81;;;14.78;56.10
5126;BME280;63008;53.112;8.896;2023-04-22T06:51:16;100890.84;;;14.83;56.45
5126;BME280;63008;53.112;8.896;2023-04-22T06:53:17;100885.69;;;14.82;55.78
5126;BME280;63008;53.112;8.896;2023-04-22T06:55:18;100884.16;;;14.84;55.88
5126;BME280;63008;53.112;8.896;2023-04-22T06:57:19;100890.84;;;14.83;55.88
5126;BME280;63008;53.112;8.896;2023-04-22T06:59:20;100887.44;;;14.90;56.62
5126;BME280;63008;53.112;8.896;2023-04-22T07:01:21;100875.31;;;14.79;56.74
5126;BME280;63008;53.112;8.896;2023-04-22T07:03:22;100872.13;;;14.77;56.44
5126;BME280;63008;53.112;8.896;2023-04-22T07:05:23;100884.09;;;14.81;56.93
5126;BME280;63008;53.112;8.896;2023-04-22T07:07:24;100875.78;;;14.81;57.52
5126;BME280;63008;53.112;8.896;2023-04-22T07:09:25;100877.53;;;14.89;56.72
5126;BME280;63008;53.112;8.896;2023-04-22T07:11:26;100870.50;;;14.91;57.07
5126;BME280;63008;53.112;8.896;2023-04-22T07:13:27;100870.13;;;14.93;57.66
5126;BME280;63008;53.112;8.896;2023-04-22T07:15:28;100865.34;;;14.90;57.33
5126;BME280;63008;53.112;8.896;2023-04-22T07:17:29;100868.00;;;14.86;57.24
5126;BME280;63008;53.112;8.896;2023-04-22T07:19:30;100859.03;;;14.89;57.36
5126;BME280;63008;53.112;8.896;2023-04-22T07:21:31;100866.59;;;14.92;57.28
5126;BME280;63008;53.112;8.896;2023-04-22T07:23:32;100865.66;;;15.04;56.88
5126;BME280;63008;53.112;8.896;2023-04-22T07:25:33;100864.94;;;15.07;57.57
5126;BME280;63008;53.112;8.896;2023-04-22T07:27:35;100869.19;;;15.20;57.06
5126;BME280;63008;53.112;8.896;2023-04-22T07:29:36;100877.28;;;15.28;56.88
5126;BME280;63008;53.112;8.896;2023-04-22T07:31:37;100875.84;;;15.34;56.05
5126;BME280;63008;53.112;8.896;2023-04-22T07:33:38;100880.81;;;15.44;56.49
5126;BME280;63008;53.112;8.896;2023-04-22T07:35:39;100885.75;;;15.54;56.25
5126;BME280;63008;53.112;8.896;2023-04-22T07:38:57;100887.22;;;15.67;55.70
5126;BME280;63008;53.112;8.896;2023-04-22T07:40:58;100883.44;;;15.75;55.61
5126;BME280;63008;53.112;8.896;2023-04-22T07:42:59;100877.75;;;15.87;55.33
5126;BME280;63008;53.112;8.896;2023-04-22T07:45:00;100879.41;;;15.92;54.96
5126;BME280;63008;53.112;8.896;2023-04-22T07:47:02;100890.78;;;16.06;54.97
5126;BME280;63008;53.112;8.896;2023-04-22T07:49:03;100895.25;;;16.14;54.69
5126;BME280;63008;53.112;8.896;2023-04-22T07:51:04;100881.63;;;16.24;54.27
5126;BME280;63008;53.112;8.896;2023-04-22T07:53:05;100875.56;;;16.38;54.43
5126;BME280;63008;53.112;8.896;2023-04-22T07:55:06;100884.84;;;16.49;54.72
5126;BME280;63008;53.112;8.896;2023-04-22T07:57:07;100885.84;;;16.59;53.26
5126;BME280;63008;53.112;8.896;2023-04-22T07:59:08;100897.97;;;16.74;54.07
5126;BME280;63008;53.112;8.896;2023-04-22T08:01:09;100889.66;;;16.74;54.08
5126;BME280;63008;53.112;8.896;2023-04-22T08:03:10;100890.63;;;16.85;53.49
5126;BME280;63008;53.112;8.896;2023-04-22T08:05:11;100884.50;;;16.98;53.73
5126;BME280;63008;53.112;8.896;2023-04-22T08:07:13;100882.22;;;17.07;53.04
5126;BME280;63008;53.112;8.896;2023-04-22T08:09:14;100882.44;;;17.21;53.60
5126;BME280;63008;53.112;8.896;2023-04-22T08:11:15;100893.78;;;17.35;53.45
5126;BME280;63008;53.112;8.896;2023-04-22T08:13:16;100881.91;;;17.35;53.36
5126;BME280;63008;53.112;8.896;2023-04-22T08:15:17;100882.34;;;17.40;52.58
5126;BME280;63008;53.112;8.896;2023-04-22T08:17:18;100880.16;;;17.53;52.62
5126;BME280;63008;53.112;8.896;2023-04-22T08:19:21;100885.03;;;17.63;53.26
5126;BME280;63008;53.112;8.896;2023-04-22T08:21:22;100885.19;;;17.77;53.39
5126;BME280;63008;53.112;8.896;2023-04-22T08:23:24;100883.00;;;17.93;51.50
5126;BME280;63008;53.112;8.896;2023-04-22T08:25:26;100882.41;;;18.10;51.70
5126;BME280;63008;53.112;8.896;2023-04-22T08:27:27;100878.81;;;18.06;50.42
5126;BME280;63008;53.112;8.896;2023-04-22T08:29:28;100871.75;;;18.15;50.93
5126;BME280;63008;53.112;8.896;2023-04-22T08:31:29;100865.56;;;18.29;50.23
5126;BME280;63008;53.112;8.896;2023-04-22T08:33:30;100861.66;;;18.33;50.63
5126;BME280;63008;53.112;8.896;2023-04-22T08:35:35;100858.34;;;18.24;49.42
5126;BME280;63008;53.112;8.896;2023-04-22T08:37:36;100870.28;;;18.25;49.62
5126;BME280;63008;53.112;8.896;2023-04-22T08:39:37;100863.25;;;18.38;49.39
5126;BME280;63008;53.112;8.896;2023-04-22T08:41:38;100859.41;;;18.49;49.72
5126;BME280;63008;53.112;8.896;2023-04-22T08:43:40;100855.88;;;18.55;48.92
5126;BME280;63008;53.112;8.896;2023-04-22T08:45:41;100853.16;;;18.62;48.77
5126;BME280;63008;53.112;8.896;2023-04-22T08:47:42;100858.44;;;18.78;49.06
5126;BME280;63008;53.112;8.896;2023-04-22T08:49:44;100854.50;;;18.82;48.80
5126;BME280;63008;53.112;8.896;2023-04-22T08:51:47;100855.47;;;19.07;49.23
5126;BME280;63008;53.112;8.896;2023-04-22T08:53:49;100858.25;;;19.07;48.20
5126;BME280;63008;53.112;8.896;2023-04-22T08:55:50;100852.84;;;19.32;47.28
5126;BME280;63008;53.112;8.896;2023-04-22T08:57:52;100848.09;;;19.36;47.71
5126;BME280;63008;53.112;8.896;2023-04-22T08:59:53;100842.66;;;19.64;51.87
5126;BME280;63008;53.112;8.896;2023-04-22T09:01:58;100836.03;;;20.07;47.47
5126;BME280;63008;53.112;8.896;2023-04-22T09:03:59;100818.16;;;20.29;45.94
5126;BME280;63008;53.112;8.896;2023-04-22T09:06:03;100833.28;;;20.35;48.02
5126;BME280;63008;53.112;8.896;2023-04-22T09:08:04;100835.28;;;20.48;44.64
5126;BME280;63008;53.112;8.896;2023-04-22T09:10:07;100834.09;;;20.52;44.70
5126;BME280;63008;53.112;8.896;2023-04-22T09:12:08;100822.13;;;20.69;43.69
5126;BME280;63008;53.112;8.896;2023-04-22T09:14:09;100822.91;;;20.94;42.95
5126;BME280;63008;53.112;8.896;2023-04-22T09:16:10;100822.13;;;21.08;44.97
5126;BME280;63008;53.112;8.896;2023-04-22T09:18:16;100818.13;;;21.05;45.60
5126;BME280;63008;53.112;8.896;2023-04-22T09:20:17;100817.44;;;21.80;42.52
5126;BME280;63008;53.112;8.896;2023-04-22T09:22:19;100815.75;;;22.54;41.17
5126;BME280;63008;53.112;8.896;2023-04-22T09:24:20;100813.59;;;22.72;41.77
5126;BME280;63008;53.112;8.896;2023-04-22T09:26:22;100813.53;;;23.20;39.75
5126;BME280;63008;53.112;8.896;2023-04-22T09:28:24;100817.66;;;23.05;41.88
5126;BME280;63008;53.112;8.896;2023-04-22T09:30:33;100819.53;;;22.81;42.21
5126;BME280;63008;53.112;8.896;2023-04-22T09:32:34;100818.69;;;22.84;40.85
5126;BME280;63008;53.112;8.896;2023-04-22T09:34:45;100822.81;;;23.10;40.71
5126;BME280;63008;53.112;8.896;2023-04-22T09:36:52;100813.69;;;22.62;42.71
5126;BME280;63008;53.112;8.896;2023-04-22T09:38:57;100812.16;;;23.35;40.70
5126;BME280;63008;53.112;8.896;2023-04-22T09:40:59;100818.78;;;23.51;42.78
5126;BME280;63008;53.112;8.896;2023-04-22T09:43:06;100817.16;;;23.84;39.60
5126;BME280;63008;53.112;8.896;2023-04-22T09:45:07;100817.41;;;23.63;39.64
5126;BME280;63008;53.112;8.896;2023-04-22T09:47:08;100814.09;;;24.01;37.85
5126;BME280;63008;53.112;8.896;2023-04-22T09:49:15;100807.78;;;23.94;38.56
5126;BME280;63008;53.112;8.896;2023-04-22T09:51:17;100816.00;;;24.08;37.52
5126;BME280;63008;53.112;8.896;2023-04-22T09:53:20;100806.00;;;24.07;37.46
5126;BME280;63008;53.112;8.896;2023-04-22T09:55:26;100813.66;;;23.73;37.44
5126;BME280;63008;53.112;8.896;2023-04-22T09:57:27;100799.75;;;23.66;37.76
5126;BME280;63008;53.112;8.896;2023-04-22T09:59:28;100810.25;;;23.58;37.87
5126;BME280;63008;53.112;8.896;2023-04-22T10:01:40;100813.28;;;23.71;38.25
5126;BME280;63008;53.112;8.896;2023-04-22T10:03:41;100801.81;;;23.92;38.25
5126;BME280;63008;53.112;8.896;2023-04-22T10:05:43;100804.84;;;24.31;37.76
5126;BME280;63008;53.112;8.896;2023-04-22T10:07:45;100789.41;;;24.42;37.71
5126;BME280;63008;53.112;8.896;2023-04-22T10:09:46;100790.72;;;24.34;42.03
5126;BME280;63008;53.112;8.896;2023-04-22T10:11:49;100791.66;;;24.50;42.07
5126;BME280;63008;53.112;8.896;2023-04-22T10:13:51;100803.53;;;24.84;36.61
5126;BME280;63008;53.112;8.896;2023-04-22T10:15:54;100796.03;;;24.97;36.17
5126;BME280;63008;53.112;8.896;2023-04-22T10:17:56;100794.91;;;24.95;36.46
5126;BME280;63008;53.112;8.896;2023-04-22T10:20:03;100790.78;;;25.22;35.64
5126;BME280;63008;53.112;8.896;2023-04-22T10:22:09;100794.03;;;25.40;36.65
5126;BME280;63008;53.112;8.896;2023-04-22T10:24:15;100787.91;;;24.83;37.42
5126;BME280;63008;53.112;8.896;2023-04-22T10:28:43;100774.53;;;25.49;35.97
5126;BME280;63008;53.112;8.896;2023-04-22T10:30:44;100771.09;;;25.77;36.53
5126;BME280;63008;53.112;8.896;2023-04-22T10:32:45;100772.34;;;25.21;37.23
5126;BME280;63008;53.112;8.896;2023-04-22T10:35:06;100765.28;;;25.68;36.58
5126;BME280;63008;53.112;8.896;2023-04-22T10:37:08;100769.50;;;26.12;34.14
5126;BME280;63008;53.112;8.896;2023-04-22T10:39:15;100768.38;;;26.41;33.73
5126;BME280;63008;53.112;8.896;2023-04-22T10:41:22;100787.03;;;26.35;34.66
5126;BME280;63008;53.112;8.896;2023-04-22T10:43:39;100761.53;;;26.10;34.05
5126;BME280;63008;53.112;8.896;2023-04-22T10:45:40;100773.13;;;25.41;35.54
5126;BME280;63008;53.112;8.896;2023-04-22T10:47:42;100775.31;;;26.05;36.48
5126;BME280;63008;53.112;8.896;2023-04-22T10:49:43;100768.91;;;26.20;34.70
5126;BME280;63008;53.112;8.896;2023-04-22T10:51:48;100769.19;;;25.55;35.67
5126;BME280;63008;53.112;8.896;2023-04-22T10:53:49;100764.75;;;25.38;38.22
5126;BME280;63008;53.112;8.896;2023-04-22T10:55:51;100765.03;;;25.24;35.96